sensor_id;sensor_type;location;lat;lon;timestamp;P1;durP1;ratioP1;P2;durP2;ratioP2
9166;SDS011;4618;48.818;9.088;2023-02-01T00:00:22;4.07;;;3.63;;
9166;SDS011;4618;48.818;9.088;2023-02-01T00:02:47;4.47;;;3.87;;
9166;SDS011;4618;48.818;9.088;2023-02-01T00:05:13;4.87;;;4.20;;
9166;SDS011;4618;48.818;9.088;2023-02-01T00:07:39;3.53;;;3.23;;
9166;SDS011;4618;48.818;9.088;2023-02-01T00:10:05;4.10;;;3.73;;
9166;SDS011;4618;48.818;9.088;2023-02-01T00:12:31;4.60;;;3.40;;
9166;SDS011;4618;48.818;9.088;2023-02-01T00:14:57;4.23;;;3.57;;
9166;SDS011;4618;48.818;9.088;2023-02-01T00:17:23;3.27;;;2.83;;
9166;SDS011;4618;48.818;9.088;2023-02-01T00:19:48;4.07;;;2.57;;
9166;SDS011;4618;48.818;9.088;2023-02-01T00:22:14;3.77;;;2.90;;
9166;SDS011;4618;48.818;9.088;2023-02-01T00:24:39;3.33;;;2.80;;
9166;SDS011;4618;48.818;9.088;2023-02-01T00:27:05;2.97;;;2.67;;
9166;SDS011;4618;48.818;9.088;2023-02-01T00:29:31;3.23;;;2.80;;
9166;SDS011;4618;48.818;9.088;2023-02-01T00:31:56;3.47;;;3.17;;
9166;SDS011;4618;48.818;9.088;2023-02-01T00:34:22;3.70;;;3.27;;
9166;SDS011;4618;48.818;9.088;2023-02-01T00:36:48;3.20;;;2.90;;
9166;SDS011;4618;48.818;9.088;2023-02-01T00:39:14;3.23;;;2.93;;
9166;SDS011;4618;48.818;9.088;2023-02-01T00:41:40;3.40;;;2.80;;
9166;SDS011;4618;48.818;9.088;2023-02-01T00:44:06;3.63;;;2.93;;
9166;SDS011;4618;48.818;9.088;2023-02-01T00:46:31;3.53;;;3.07;;
9166;SDS011;4618;48.818;9.088;2023-02-01T00:48:57;3.07;;;2.77;;
9166;SDS011;4618;48.818;9.088;2023-02-01T00:51:24;3.83;;;2.97;;
9166;SDS011;4618;48.818;9.088;2023-02-01T00:53:51;3.80;;;3.10;;
9166;SDS011;4618;48.818;9.088;2023-02-01T00:56:17;2.60;;;2.40;;
9166;SDS011;4618;48.818;9.088;2023-02-01T00:58:43;3.47;;;2.73;;
9166;SDS011;4618;48.818;9.088;2023-02-01T01:01:09;3.23;;;2.93;;
9166;SDS011;4618;48.818;9.088;2023-02-01T01:03:38;3.80;;;3.00;;
9166;SDS011;4618;48.818;9.088;2023-02-01T01:06:08;3.70;;;2.30;;
9166;SDS011;4618;48.818;9.088;2023-02-01T01:08:35;2.20;;;2.10;;
9166;SDS011;4618;48.818;9.088;2023-02-01T01:11:08;3.30;;;2.40;;
9166;SDS011;4618;48.818;9.088;2023-02-01T01:13:37;2.63;;;2.30;;
9166;SDS011;4618;48.818;9.088;2023-02-01T01:16:03;2.47;;;2.27;;
9166;SDS011;4618;48.818;9.088;2023-02-01T01:18:30;3.83;;;2.33;;
9166;SDS011;4618;48.818;9.088;2023-02-01T01:20:57;1.97;;;1.87;;
9166;SDS011;4618;48.818;9.088;2023-02-01T01:23:23;2.90;;;2.57;;
9166;SDS011;4618;48.818;9.088;2023-02-01T01:25:49;3.03;;;2.17;;
9166;SDS011;4618;48.818;9.088;2023-02-01T01:28:14;2.40;;;2.20;;
9166;SDS011;4618;48.818;9.088;2023-02-01T01:30:40;2.93;;;2.20;;
9166;SDS011;4618;48.818;9.088;2023-02-01T01:33:06;2.10;;;1.90;;
9166;SDS011;4618;48.818;9.088;2023-02-01T01:35:32;2.00;;;1.90;;
9166;SDS011;4618;48.818;9.088;2023-02-01T01:37:58;2.03;;;1.93;;
9166;SDS011;4618;48.818;9.088;2023-02-01T01:40:24;1.90;;;1.80;;
9166;SDS011;4618;48.818;9.088;2023-02-01T01:42:51;1.80;;;1.70;;
9166;SDS011;4618;48.818;9.088;2023-02-01T01:47:53;1.70;;;1.60;;
9166;SDS011;4618;48.818;9.088;2023-02-01T01:50:27;1.50;;;1.40;;
9166;SDS011;4618;48.818;9.088;2023-02-01T01:52:59;2.17;;;1.97;;
9166;SDS011;4618;48.818;9.088;2023-02-01T01:55:28;1.60;;;1.50;;
9166;SDS011;4618;48.818;9.088;2023-02-01T01:57:57;1.60;;;1.50;;
9166;SDS011;4618;48.818;9.088;2023-02-01T02:00:26;1.40;;;1.30;;
9166;SDS011;4618;48.818;9.088;2023-02-01T02:02:54;1.40;;;1.30;;
9166;SDS011;4618;48.818;9.088;2023-02-01T02:05:23;1.43;;;1.33;;
9166;SDS011;4618;48.818;9.088;2023-02-01T02:07:50;1.47;;;1.37;;
9166;SDS011;4618;48.818;9.088;2023-02-01T02:10:18;1.30;;;1.20;;
9166;SDS011;4618;48.818;9.088;2023-02-01T02:12:44;1.50;;;1.40;;
9166;SDS011;4618;48.818;9.088;2023-02-01T02:15:13;1.40;;;1.30;;
9166;SDS011;4618;48.818;9.088;2023-02-01T02:17:58;1.63;;;1.53;;
9166;SDS011;4618;48.818;9.088;2023-02-01T02:38:57;1.83;;;1.73;;
9166;SDS011;4618;48.818;9.088;2023-02-01T02:41:46;2.47;;;2.27;;
9166;SDS011;4618;48.818;9.088;2023-02-01T02:44:41;3.43;;;2.07;;
9166;SDS011;4618;48.818;9.088;2023-02-01T02:50:27;3.03;;;2.37;;
9166;SDS011;4618;48.818;9.088;2023-02-01T02:53:18;2.33;;;2.17;;
9166;SDS011;4618;48.818;9.088;2023-02-01T02:56:11;2.37;;;2.17;;
9166;SDS011;4618;48.818;9.088;2023-02-01T02:58:58;2.33;;;2.13;;
9166;SDS011;4618;48.818;9.088;2023-02-01T03:01:42;3.03;;;2.40;;
9166;SDS011;4618;48.818;9.088;2023-02-01T03:04:27;2.03;;;1.93;;
9166;SDS011;4618;48.818;9.088;2023-02-01T03:06:53;2.90;;;2.10;;
9166;SDS011;4618;48.818;9.088;2023-02-01T03:09:26;2.13;;;2.00;;
9166;SDS011;4618;48.818;9.088;2023-02-01T03:11:58;2.47;;;2.27;;
9166;SDS011;4618;48.818;9.088;2023-02-01T03:14:49;2.50;;;2.03;;
9166;SDS011;4618;48.818;9.088;2023-02-01T03:17:18;2.37;;;2.27;;
9166;SDS011;4618;48.818;9.088;2023-02-01T03:19:48;2.57;;;2.30;;
9166;SDS011;4618;48.818;9.088;2023-02-01T03:22:18;3.43;;;2.07;;
9166;SDS011;4618;48.818;9.088;2023-02-01T03:24:56;2.30;;;2.10;;
9166;SDS011;4618;48.818;9.088;2023-02-01T03:27:36;2.67;;;2.20;;
9166;SDS011;4618;48.818;9.088;2023-02-01T03:30:11;2.77;;;2.00;;
9166;SDS011;4618;48.818;9.088;2023-02-01T03:32:47;1.77;;;1.67;;
9166;SDS011;4618;48.818;9.088;2023-02-01T03:35:27;1.33;;;1.23;;
9166;SDS011;4618;48.818;9.088;2023-02-01T03:37:54;2.33;;;1.60;;
9166;SDS011;4618;48.818;9.088;2023-02-01T03:40:26;1.93;;;1.80;;
9166;SDS011;4618;48.818;9.088;2023-02-01T03:42:56;2.10;;;1.90;;
9166;SDS011;4618;48.818;9.088;2023-02-01T03:45:26;1.93;;;1.83;;
9166;SDS011;4618;48.818;9.088;2023-02-01T03:47:57;2.10;;;1.73;;
9166;SDS011;4618;48.818;9.088;2023-02-01T03:50:25;1.87;;;1.77;;
9166;SDS011;4618;48.818;9.088;2023-02-01T03:55:30;1.70;;;1.60;;
9166;SDS011;4618;48.818;9.088;2023-02-01T03:57:59;1.70;;;1.60;;
9166;SDS011;4618;48.818;9.088;2023-02-01T04:00:40;1.73;;;1.63;;
9166;SDS011;4618;48.818;9.088;2023-02-01T04:03:11;2.80;;;2.27;;
9166;SDS011;4618;48.818;9.088;2023-02-01T04:05:36;2.23;;;2.07;;
9166;SDS011;4618;48.818;9.088;2023-02-01T04:08:02;2.20;;;1.97;;
9166;SDS011;4618;48.818;9.088;2023-02-01T04:10:30;2.03;;;1.93;;
9166;SDS011;4618;48.818;9.088;2023-02-01T04:12:55;2.13;;;1.93;;
9166;SDS011;4618;48.818;9.088;2023-02-01T04:15:21;1.73;;;1.63;;
9166;SDS011;4618;48.818;9.088;2023-02-01T04:17:46;1.83;;;1.73;;
9166;SDS011;4618;48.818;9.088;2023-02-01T04:20:12;1.73;;;1.63;;
9166;SDS011;4618;48.818;9.088;2023-02-01T04:22:37;2.10;;;2.00;;
9166;SDS011;4618;48.818;9.088;2023-02-01T04:25:03;1.87;;;1.77;;
9166;SDS011;4618;48.818;9.088;2023-02-01T04:27:30;2.10;;;1.90;;
9166;SDS011;4618;48.818;9.088;2023-02-01T04:29:56;2.30;;;1.70;;
9166;SDS011;4618;48.818;9.088;2023-02-01T04:32:22;2.40;;;1.83;;
9166;SDS011;4618;48.818;9.088;2023-02-01T04:34:47;1.80;;;1.70;;
9166;SDS011;4618;48.818;9.088;2023-02-01T04:37:13;2.13;;;1.80;;
9166;SDS011;4618;48.818;9.088;2023-02-01T04:39:38;2.50;;;1.90;;
9166;SDS011;4618;48.818;9.088;2023-02-01T04:42:04;2.33;;;1.83;;
9166;SDS011;4618;48.818;9.088;2023-02-01T04:44:29;2.23;;;1.60;;
9166;SDS011;4618;48.818;9.088;2023-02-01T04:46:55;1.97;;;1.80;;
9166;SDS011;4618;48.818;9.088;2023-02-01T04:49:21;1.80;;;1.70;;
9166;SDS011;4618;48.818;9.088;2023-02-01T04:51:47;1.83;;;1.57;;
9166;SDS011;4618;48.818;9.088;2023-02-01T04:54:12;1.90;;;1.80;;
9166;SDS011;4618;48.818;9.088;2023-02-01T04:56:38;1.97;;;1.87;;
9166;SDS011;4618;48.818;9.088;2023-02-01T04:59:04;1.40;;;1.30;;
9166;SDS011;4618;48.818;9.088;2023-02-01T05:01:30;1.53;;;1.43;;
9166;SDS011;4618;48.818;9.088;2023-02-01T05:03:56;2.20;;;1.93;;
9166;SDS011;4618;48.818;9.088;2023-02-01T05:06:22;2.00;;;1.90;;
9166;SDS011;4618;48.818;9.088;2023-02-01T05:08:47;2.53;;;1.90;;
9166;SDS011;4618;48.818;9.088;2023-02-01T05:11:13;1.63;;;1.53;;
9166;SDS011;4618;48.818;9.088;2023-02-01T05:13:58;1.73;;;1.50;;
9166;SDS011;4618;48.818;9.088;2023-02-01T05:16:25;1.80;;;1.60;;
9166;SDS011;4618;48.818;9.088;2023-02-01T05:18:51;1.47;;;1.37;;
9166;SDS011;4618;48.818;9.088;2023-02-01T05:21:17;1.60;;;1.50;;
9166;SDS011;4618;48.818;9.088;2023-02-01T05:23:42;1.80;;;1.70;;
9166;SDS011;4618;48.818;9.088;2023-02-01T05:26:27;1.57;;;1.47;;
9166;SDS011;4618;48.818;9.088;2023-02-01T05:28:53;2.33;;;1.63;;
9166;SDS011;4618;48.818;9.088;2023-02-01T05:31:19;1.90;;;1.70;;
9166;SDS011;4618;48.818;9.088;2023-02-01T05:33:45;1.90;;;1.60;;
9166;SDS011;4618;48.818;9.088;2023-02-01T05:36:11;1.63;;;1.50;;
9166;SDS011;4618;48.818;9.088;2023-02-01T05:38:36;1.77;;;1.53;;
9166;SDS011;4618;48.818;9.088;2023-02-01T05:41:02;2.30;;;1.60;;
9166;SDS011;4618;48.818;9.088;2023-02-01T05:43:28;1.70;;;1.60;;
9166;SDS011;4618;48.818;9.088;2023-02-01T05:45:53;1.97;;;1.67;;
9166;SDS011;4618;48.818;9.088;2023-02-01T05:48:19;4.80;;;1.53;;
9166;SDS011;4618;48.818;9.088;2023-02-01T05:50:44;3.27;;;1.43;;
9166;SDS011;4618;48.818;9.088;2023-02-01T05:53:10;2.10;;;1.23;;
9166;SDS011;4618;48.818;9.088;2023-02-01T05:55:37;2.10;;;1.50;;
9166;SDS011;4618;48.818;9.088;2023-02-01T05:58:03;1.47;;;1.37;;
9166;SDS011;4618;48.818;9.088;2023-02-01T06:00:28;2.37;;;1.30;;
9166;SDS011;4618;48.818;9.088;2023-02-01T06:02:54;4.50;;;1.40;;
9166;SDS011;4618;48.818;9.088;2023-02-01T06:05:20;2.43;;;1.37;;
9166;SDS011;4618;48.818;9.088;2023-02-01T06:07:46;3.33;;;1.40;;
9166;SDS011;4618;48.818;9.088;2023-02-01T06:10:12;2.10;;;1.40;;
9166;SDS011;4618;48.818;9.088;2023-02-01T06:12:38;2.37;;;1.30;;
9166;SDS011;4618;48.818;9.088;2023-02-01T06:15:04;2.17;;;1.37;;
9166;SDS011;4618;48.818;9.088;2023-02-01T06:17:30;2.57;;;1.60;;
9166;SDS011;4618;48.818;9.088;2023-02-01T06:19:56;1.23;;;1.13;;
9166;SDS011;4618;48.818;9.088;2023-02-01T06:22:21;1.53;;;1.33;;
9166;SDS011;4618;48.818;9.088;2023-02-01T06:24:47;2.17;;;1.37;;
9166;SDS011;4618;48.818;9.088;2023-02-01T06:27:13;2.93;;;1.80;;
9166;SDS011;4618;48.818;9.088;2023-02-01T06:29:39;3.77;;;1.53;;
9166;SDS011;4618;48.818;9.088;2023-02-01T06:32:05;3.13;;;1.70;;
9166;SDS011;4618;48.818;9.088;2023-02-01T06:34:31;2.23;;;1.80;;
9166;SDS011;4618;48.818;9.088;2023-02-01T06:36:56;2.47;;;1.90;;
9166;SDS011;4618;48.818;9.088;2023-02-01T06:39:22;3.70;;;2.00;;
9166;SDS011;4618;48.818;9.088;2023-02-01T06:41:48;3.43;;;1.90;;
9166;SDS011;4618;48.818;9.088;2023-02-01T06:44:14;2.70;;;1.90;;
9166;SDS011;4618;48.818;9.088;2023-02-01T06:46:40;3.23;;;2.53;;
9166;SDS011;4618;48.818;9.088;2023-02-01T06:49:06;2.80;;;1.90;;
9166;SDS011;4618;48.818;9.088;2023-02-01T06:51:32;2.53;;;2.30;;
9166;SDS011;4618;48.818;9.088;2023-02-01T06:53:58;4.10;;;2.10;;
9166;SDS011;4618;48.818;9.088;2023-02-01T06:56:24;4.67;;;2.70;;
9166;SDS011;4618;48.818;9.088;2023-02-01T06:58:50;6.40;;;2.60;;
9166;SDS011;4618;48.818;9.088;2023-02-01T07:01:15;2.37;;;2.17;;
9166;SDS011;4618;48.818;9.088;2023-02-01T07:03:42;5.40;;;2.67;;
9166;SDS011;4618;48.818;9.088;2023-02-01T07:06:08;9.47;;;2.90;;
9166;SDS011;4618;48.818;9.088;2023-02-01T07:08:35;3.80;;;2.93;;
9166;SDS011;4618;48.818;9.088;2023-02-01T07:11:20;4.50;;;2.40;;
9166;SDS011;4618;48.818;9.088;2023-02-01T07:13:45;12.70;;;2.63;;
9166;SDS011;4618;48.818;9.088;2023-02-01T07:16:13;6.13;;;2.40;;
9166;SDS011;4618;48.818;9.088;2023-02-01T07:18:40;4.80;;;2.40;;
9166;SDS011;4618;48.818;9.088;2023-02-01T07:21:06;6.40;;;2.47;;
9166;SDS011;4618;48.818;9.088;2023-02-01T07:23:31;5.30;;;2.90;;
9166;SDS011;4618;48.818;9.088;2023-02-01T07:25:58;6.40;;;2.97;;
9166;SDS011;4618;48.818;9.088;2023-02-01T07:28:25;8.10;;;2.60;;
9166;SDS011;4618;48.818;9.088;2023-02-01T07:30:51;3.67;;;2.43;;
9166;SDS011;4618;48.818;9.088;2023-02-01T07:33:18;3.57;;;2.20;;
9166;SDS011;4618;48.818;9.088;2023-02-01T07:35:48;5.03;;;2.50;;
9166;SDS011;4618;48.818;9.088;2023-02-01T07:38:16;6.83;;;2.67;;
9166;SDS011;4618;48.818;9.088;2023-02-01T07:40:42;4.87;;;2.73;;
9166;SDS011;4618;48.818;9.088;2023-02-01T07:43:08;8.77;;;2.93;;
9166;SDS011;4618;48.818;9.088;2023-02-01T07:45:36;6.17;;;2.60;;
9166;SDS011;4618;48.818;9.088;2023-02-01T07:48:02;6.90;;;2.13;;
9166;SDS011;4618;48.818;9.088;2023-02-01T07:50:29;5.77;;;2.43;;
9166;SDS011;4618;48.818;9.088;2023-02-01T07:52:55;5.00;;;2.53;;
9166;SDS011;4618;48.818;9.088;2023-02-01T07:55:23;9.50;;;2.60;;
9166;SDS011;4618;48.818;9.088;2023-02-01T07:57:49;6.33;;;2.67;;
9166;SDS011;4618;48.818;9.088;2023-02-01T08:00:15;5.83;;;2.63;;
9166;SDS011;4618;48.818;9.088;2023-02-01T08:03:00;3.10;;;2.07;;
9166;SDS011;4618;48.818;9.088;2023-02-01T08:05:26;7.17;;;3.03;;
9166;SDS011;4618;48.818;9.088;2023-02-01T08:07:52;6.67;;;2.50;;
9166;SDS011;4618;48.818;9.088;2023-02-01T08:10:18;4.90;;;2.40;;
9166;SDS011;4618;48.818;9.088;2023-02-01T08:12:44;7.87;;;2.73;;
9166;SDS011;4618;48.818;9.088;2023-02-01T08:15:16;7.20;;;2.87;;
9166;SDS011;4618;48.818;9.088;2023-02-01T08:17:49;6.13;;;2.60;;
9166;SDS011;4618;48.818;9.088;2023-02-01T08:20:16;5.40;;;2.30;;
9166;SDS011;4618;48.818;9.088;2023-02-01T08:22:43;8.00;;;2.60;;
9166;SDS011;4618;48.818;9.088;2023-02-01T08:25:09;7.87;;;2.80;;
9166;SDS011;4618;48.818;9.088;2023-02-01T08:27:36;8.20;;;2.83;;
9166;SDS011;4618;48.818;9.088;2023-02-01T08:30:02;7.40;;;3.13;;
9166;SDS011;4618;48.818;9.088;2023-02-01T08:32:29;5.90;;;2.73;;
9166;SDS011;4618;48.818;9.088;2023-02-01T08:34:55;8.10;;;2.67;;
9166;SDS011;4618;48.818;9.088;2023-02-01T08:37:20;9.13;;;2.50;;
9166;SDS011;4618;48.818;9.088;2023-02-01T08:39:47;5.83;;;2.00;;
9166;SDS011;4618;48.818;9.088;2023-02-01T08:42:15;5.53;;;2.50;;
9166;SDS011;4618;48.818;9.088;2023-02-01T08:45:00;10.77;;;2.83;;
9166;SDS011;4618;48.818;9.088;2023-02-01T08:47:27;10.60;;;2.63;;
9166;SDS011;4618;48.818;9.088;2023-02-01T08:49:53;5.90;;;2.07;;
9166;SDS011;4618;48.818;9.088;2023-02-01T08:52:19;6.97;;;2.50;;
9166;SDS011;4618;48.818;9.088;2023-02-01T08:54:44;8.43;;;2.33;;
9166;SDS011;4618;48.818;9.088;2023-02-01T08:57:10;5.53;;;2.27;;
9166;SDS011;4618;48.818;9.088;2023-02-01T08:59:36;7.43;;;2.40;;
9166;SDS011;4618;48.818;9.088;2023-02-01T09:02:01;7.20;;;2.33;;
9166;SDS011;4618;48.818;9.088;2023-02-01T09:04:27;6.47;;;2.57;;
9166;SDS011;4618;48.818;9.088;2023-02-01T09:06:52;8.37;;;2.43;;
9166;SDS011;4618;48.818;9.088;2023-02-01T09:09:20;6.63;;;2.30;;
9166;SDS011;4618;48.818;9.088;2023-02-01T09:11:46;9.40;;;2.10;;
9166;SDS011;4618;48.818;9.088;2023-02-01T09:14:12;8.00;;;2.13;;
9166;SDS011;4618;48.818;9.088;2023-02-01T09:16:38;6.00;;;1.80;;
9166;SDS011;4618;48.818;9.088;2023-02-01T09:19:03;9.47;;;2.57;;
9166;SDS011;4618;48.818;9.088;2023-02-01T09:21:29;9.17;;;2.90;;
9166;SDS011;4618;48.818;9.088;2023-02-01T09:23:55;6.93;;;2.20;;
9166;SDS011;4618;48.818;9.088;2023-02-01T09:26:20;7.57;;;2.17;;
9166;SDS011;4618;48.818;9.088;2023-02-01T09:28:46;5.50;;;2.20;;
9166;SDS011;4618;48.818;9.088;2023-02-01T09:31:11;8.57;;;2.50;;
9166;SDS011;4618;48.818;9.088;2023-02-01T09:33:37;8.87;;;2.00;;
9166;SDS011;4618;48.818;9.088;2023-02-01T09:36:03;8.07;;;2.40;;
9166;SDS011;4618;48.818;9.088;2023-02-01T09:38:30;10.23;;;2.30;;
9166;SDS011;4618;48.818;9.088;2023-02-01T09:40:57;4.17;;;1.63;;
9166;SDS011;4618;48.818;9.088;2023-02-01T09:48:29;6.30;;;2.00;;
9166;SDS011;4618;48.818;9.088;2023-02-01T09:50:58;7.83;;;2.33;;
9166;SDS011;4618;48.818;9.088;2023-02-01T09:53:28;7.90;;;2.10;;
9166;SDS011;4618;48.818;9.088;2023-02-01T09:56:02;8.33;;;1.93;;
9166;SDS011;4618;48.818;9.088;2023-02-01T09:58:54;11.77;;;2.27;;
9166;SDS011;4618;48.818;9.088;2023-02-01T10:01:33;7.53;;;2.07;;
9166;SDS011;4618;48.818;9.088;2023-02-01T10:04:10;7.10;;;2.27;;
9166;SDS011;4618;48.818;9.088;2023-02-01T10:06:41;8.27;;;2.50;;
9166;SDS011;4618;48.818;9.088;2023-02-01T10:12:15;9.23;;;2.43;;
9166;SDS011;4618;48.818;9.088;2023-02-01T10:18:04;6.63;;;1.93;;
9166;SDS011;4618;48.818;9.088;2023-02-01T10:26:23;7.93;;;2.20;;
9166;SDS011;4618;48.818;9.088;2023-02-01T10:28:57;12.70;;;2.43;;
9166;SDS011;4618;48.818;9.088;2023-02-01T10:31:26;10.17;;;2.17;;
9166;SDS011;4618;48.818;9.088;2023-02-01T10:33:56;7.30;;;2.03;;
9166;SDS011;4618;48.818;9.088;2023-02-01T10:36:25;12.47;;;2.50;;
9166;SDS011;4618;48.818;9.088;2023-02-01T10:38:55;8.33;;;2.20;;
9166;SDS011;4618;48.818;9.088;2023-02-01T10:41:23;11.67;;;2.07;;
9166;SDS011;4618;48.818;9.088;2023-02-01T10:43:54;9.30;;;2.47;;
9166;SDS011;4618;48.818;9.088;2023-02-01T10:46:23;9.50;;;2.40;;
9166;SDS011;4618;48.818;9.088;2023-02-01T10:48:49;12.83;;;2.10;;
9166;SDS011;4618;48.818;9.088;2023-02-01T10:53:55;5.03;;;1.63;;
9166;SDS011;4618;48.818;9.088;2023-02-01T10:56:26;12.93;;;2.10;;
9166;SDS011;4618;48.818;9.088;2023-02-01T10:58:59;8.60;;;2.20;;
9166;SDS011;4618;48.818;9.088;2023-02-01T11:01:41;9.67;;;2.20;;
9166;SDS011;4618;48.818;9.088;2023-02-01T11:04:10;8.07;;;2.13;;
9166;SDS011;4618;48.818;9.088;2023-02-01T11:06:49;12.00;;;2.03;;
9166;SDS011;4618;48.818;9.088;2023-02-01T11:09:19;7.77;;;2.23;;
9166;SDS011;4618;48.818;9.088;2023-02-01T11:14:20;9.80;;;2.43;;
9166;SDS011;4618;48.818;9.088;2023-02-01T11:16:58;8.30;;;2.10;;
9166;SDS011;4618;48.818;9.088;2023-02-01T11:19:28;8.67;;;2.10;;
9166;SDS011;4618;48.818;9.088;2023-02-01T11:21:55;6.53;;;1.70;;
9166;SDS011;4618;48.818;9.088;2023-02-01T11:24:24;8.10;;;1.80;;
9166;SDS011;4618;48.818;9.088;2023-02-01T11:26:59;6.80;;;2.20;;
9166;SDS011;4618;48.818;9.088;2023-02-01T11:29:28;9.80;;;2.10;;
9166;SDS011;4618;48.818;9.088;2023-02-01T11:32:01;7.63;;;1.77;;
9166;SDS011;4618;48.818;9.088;2023-02-01T11:34:37;8.90;;;2.23;;
9166;SDS011;4618;48.818;9.088;2023-02-01T11:37:17;9.67;;;2.10;;
9166;SDS011;4618;48.818;9.088;2023-02-01T11:39:54;5.83;;;1.60;;
9166;SDS011;4618;48.818;9.088;2023-02-01T11:42:24;7.77;;;1.87;;
9166;SDS011;4618;48.818;9.088;2023-02-01T11:44:50;7.23;;;1.83;;
9166;SDS011;4618;48.818;9.088;2023-02-01T11:47:39;6.73;;;2.00;;
9166;SDS011;4618;48.818;9.088;2023-02-01T11:50:16;9.63;;;1.50;;
9166;SDS011;4618;48.818;9.088;2023-02-01T11:56:26;5.73;;;1.70;;
9166;SDS011;4618;48.818;9.088;2023-02-01T11:59:11;7.33;;;1.47;;
9166;SDS011;4618;48.818;9.088;2023-02-01T12:18:25;6.30;;;1.50;;
9166;SDS011;4618;48.818;9.088;2023-02-01T12:21:22;6.30;;;1.70;;
9166;SDS011;4618;48.818;9.088;2023-02-01T12:23:59;7.60;;;2.23;;
9166;SDS011;4618;48.818;9.088;2023-02-01T12:43:01;9.90;;;1.70;;
9166;SDS011;4618;48.818;9.088;2023-02-01T12:45:32;4.43;;;1.60;;
9166;SDS011;4618;48.818;9.088;2023-02-01T12:50:54;8.07;;;2.10;;
9166;SDS011;4618;48.818;9.088;2023-02-01T12:55:56;8.67;;;2.17;;
9166;SDS011;4618;48.818;9.088;2023-02-01T12:58:38;9.87;;;2.03;;
9166;SDS011;4618;48.818;9.088;2023-02-01T13:01:11;8.30;;;2.23;;
9166;SDS011;4618;48.818;9.088;2023-02-01T13:06:53;8.90;;;2.40;;
9166;SDS011;4618;48.818;9.088;2023-02-01T13:11:59;8.97;;;1.70;;
9166;SDS011;4618;48.818;9.088;2023-02-01T13:14:37;7.50;;;1.97;;
9166;SDS011;4618;48.818;9.088;2023-02-01T13:17:32;7.03;;;2.00;;
9166;SDS011;4618;48.818;9.088;2023-02-01T13:20:19;9.07;;;2.00;;
9166;SDS011;4618;48.818;9.088;2023-02-01T13:22:53;10.40;;;2.07;;
9166;SDS011;4618;48.818;9.088;2023-02-01T13:25:33;7.93;;;2.37;;
9166;SDS011;4618;48.818;9.088;2023-02-01T13:28:16;7.17;;;2.00;;
9166;SDS011;4618;48.818;9.088;2023-02-01T13:34:26;8.13;;;2.03;;
9166;SDS011;4618;48.818;9.088;2023-02-01T13:37:05;6.83;;;1.77;;
9166;SDS011;4618;48.818;9.088;2023-02-01T13:39:38;6.50;;;1.93;;
9166;SDS011;4618;48.818;9.088;2023-02-01T13:44:52;6.97;;;1.73;;
9166;SDS011;4618;48.818;9.088;2023-02-01T13:47:27;5.23;;;1.73;;
9166;SDS011;4618;48.818;9.088;2023-02-01T13:49:56;8.30;;;1.73;;
9166;SDS011;4618;48.818;9.088;2023-02-01T13:52:25;6.87;;;1.97;;
9166;SDS011;4618;48.818;9.088;2023-02-01T13:55:02;7.33;;;1.90;;
9166;SDS011;4618;48.818;9.088;2023-02-01T13:57:40;7.07;;;1.60;;
9166;SDS011;4618;48.818;9.088;2023-02-01T14:00:31;8.87;;;2.10;;
9166;SDS011;4618;48.818;9.088;2023-02-01T14:23:47;10.00;;;2.00;;
9166;SDS011;4618;48.818;9.088;2023-02-01T14:26:24;5.43;;;1.77;;
9166;SDS011;4618;48.818;9.088;2023-02-01T14:28:53;9.33;;;2.33;;
9166;SDS011;4618;48.818;9.088;2023-02-01T14:31:37;7.13;;;2.23;;
9166;SDS011;4618;48.818;9.088;2023-02-01T14:34:17;7.77;;;2.10;;
9166;SDS011;4618;48.818;9.088;2023-02-01T14:39:20;6.20;;;1.83;;
9166;SDS011;4618;48.818;9.088;2023-02-01T14:41:53;8.67;;;1.90;;
9166;SDS011;4618;48.818;9.088;2023-02-01T14:44:26;6.97;;;1.97;;
9166;SDS011;4618;48.818;9.088;2023-02-01T14:49:30;8.13;;;1.53;;
9166;SDS011;4618;48.818;9.088;2023-02-01T14:51:59;8.37;;;2.07;;
9166;SDS011;4618;48.818;9.088;2023-02-01T14:54:30;11.93;;;2.30;;
9166;SDS011;4618;48.818;9.088;2023-02-01T14:56:56;8.40;;;2.20;;
9166;SDS011;4618;48.818;9.088;2023-02-01T14:59:23;10.30;;;2.37;;
9166;SDS011;4618;48.818;9.088;2023-02-01T15:01:58;11.57;;;3.03;;
9166;SDS011;4618;48.818;9.088;2023-02-01T15:04:26;9.70;;;2.33;;
9166;SDS011;4618;48.818;9.088;2023-02-01T15:09:29;8.37;;;2.30;;
9166;SDS011;4618;48.818;9.088;2023-02-01T15:14:29;8.57;;;2.27;;
9166;SDS011;4618;48.818;9.088;2023-02-01T15:16:58;14.70;;;2.97;;
9166;SDS011;4618;48.818;9.088;2023-02-01T15:19:27;5.70;;;2.10;;
9166;SDS011;4618;48.818;9.088;2023-02-01T15:21:54;9.97;;;2.13;;
9166;SDS011;4618;48.818;9.088;2023-02-01T15:24:22;7.83;;;1.83;;
9166;SDS011;4618;48.818;9.088;2023-02-01T15:26:53;7.10;;;1.90;;
9166;SDS011;4618;48.818;9.088;2023-02-01T15:29:21;8.27;;;1.57;;
9166;SDS011;4618;48.818;9.088;2023-02-01T15:31:52;8.80;;;2.70;;
9166;SDS011;4618;48.818;9.088;2023-02-01T15:34:18;9.67;;;2.33;;
9166;SDS011;4618;48.818;9.088;2023-02-01T15:36:45;5.07;;;1.90;;
9166;SDS011;4618;48.818;9.088;2023-02-01T15:39:16;4.63;;;1.90;;
9166;SDS011;4618;48.818;9.088;2023-02-01T15:41:55;7.27;;;2.53;;
9166;SDS011;4618;48.818;9.088;2023-02-01T15:44:33;5.37;;;1.80;;
9166;SDS011;4618;48.818;9.088;2023-02-01T15:47:25;8.20;;;1.80;;
9166;SDS011;4618;48.818;9.088;2023-02-01T15:49:56;7.47;;;1.60;;
9166;SDS011;4618;48.818;9.088;2023-02-01T15:52:30;7.07;;;2.27;;
9166;SDS011;4618;48.818;9.088;2023-02-01T15:54:58;12.13;;;2.20;;
9166;SDS011;4618;48.818;9.088;2023-02-01T15:57:31;5.87;;;2.20;;
9166;SDS011;4618;48.818;9.088;2023-02-01T16:00:08;4.27;;;1.60;;
9166;SDS011;4618;48.818;9.088;2023-02-01T16:02:53;7.53;;;2.00;;
9166;SDS011;4618;48.818;9.088;2023-02-01T16:05:31;9.50;;;1.83;;
9166;SDS011;4618;48.818;9.088;2023-02-01T16:08:22;6.80;;;1.90;;
9166;SDS011;4618;48.818;9.088;2023-02-01T16:10:51;5.10;;;1.60;;
9166;SDS011;4618;48.818;9.088;2023-02-01T16:13:20;5.93;;;1.70;;
9166;SDS011;4618;48.818;9.088;2023-02-01T16:15:46;7.00;;;1.90;;
9166;SDS011;4618;48.818;9.088;2023-02-01T16:18:13;6.23;;;1.70;;
9166;SDS011;4618;48.818;9.088;2023-02-01T16:20:40;4.97;;;1.60;;
9166;SDS011;4618;48.818;9.088;2023-02-01T16:23:07;7.93;;;1.67;;
9166;SDS011;4618;48.818;9.088;2023-02-01T16:25:33;7.77;;;1.67;;
9166;SDS011;4618;48.818;9.088;2023-02-01T16:27:59;5.77;;;1.63;;
9166;SDS011;4618;48.818;9.088;2023-02-01T16:30:25;6.67;;;2.17;;
9166;SDS011;4618;48.818;9.088;2023-02-01T16:32:54;9.97;;;2.33;;
9166;SDS011;4618;48.818;9.088;2023-02-01T16:35:23;5.83;;;1.60;;
9166;SDS011;4618;48.818;9.088;2023-02-01T16:38:00;7.90;;;1.77;;
9166;SDS011;4618;48.818;9.088;2023-02-01T16:40:36;5.37;;;1.30;;
9166;SDS011;4618;48.818;9.088;2023-02-01T16:43:05;8.00;;;1.83;;
9166;SDS011;4618;48.818;9.088;2023-02-01T16:45:50;7.83;;;1.97;;
9166;SDS011;4618;48.818;9.088;2023-02-01T16:48:28;7.23;;;1.70;;
9166;SDS011;4618;48.818;9.088;2023-02-01T16:50:56;5.67;;;1.67;;
9166;SDS011;4618;48.818;9.088;2023-02-01T16:53:25;8.23;;;2.30;;
9166;SDS011;4618;48.818;9.088;2023-02-01T16:55:53;7.63;;;2.00;;
9166;SDS011;4618;48.818;9.088;2023-02-01T16:58:19;7.57;;;1.70;;
9166;SDS011;4618;48.818;9.088;2023-02-01T17:00:46;10.20;;;2.20;;
9166;SDS011;4618;48.818;9.088;2023-02-01T17:03:12;4.67;;;1.37;;
9166;SDS011;4618;48.818;9.088;2023-02-01T17:05:41;10.90;;;2.33;;
9166;SDS011;4618;48.818;9.088;2023-02-01T17:08:11;8.57;;;2.10;;
9166;SDS011;4618;48.818;9.088;2023-02-01T17:10:40;8.97;;;1.60;;
9166;SDS011;4618;48.818;9.088;2023-02-01T17:13:08;5.33;;;1.77;;
9166;SDS011;4618;48.818;9.088;2023-02-01T17:15:38;6.70;;;2.00;;
9166;SDS011;4618;48.818;9.088;2023-02-01T17:18:04;5.07;;;1.90;;
9166;SDS011;4618;48.818;9.088;2023-02-01T17:20:31;8.93;;;2.10;;
9166;SDS011;4618;48.818;9.088;2023-02-01T17:22:57;4.07;;;1.83;;
9166;SDS011;4618;48.818;9.088;2023-02-01T17:25:23;7.33;;;2.00;;
9166;SDS011;4618;48.818;9.088;2023-02-01T17:27:55;9.73;;;1.87;;
9166;SDS011;4618;48.818;9.088;2023-02-01T17:30:21;9.07;;;2.10;;
9166;SDS011;4618;48.818;9.088;2023-02-01T17:32:46;8.67;;;1.90;;
9166;SDS011;4618;48.818;9.088;2023-02-01T17:35:15;11.87;;;2.23;;
9166;SDS011;4618;48.818;9.088;2023-02-01T17:37:46;7.97;;;1.77;;
9166;SDS011;4618;48.818;9.088;2023-02-01T17:40:13;8.87;;;2.13;;
9166;SDS011;4618;48.818;9.088;2023-02-01T17:42:39;6.30;;;1.90;;
9166;SDS011;4618;48.818;9.088;2023-02-01T17:47:58;6.20;;;1.80;;